Time;durP1;ratioP1;P1;durP2;ratioP2;P2;SDS_P1;SDS_P2;PMS_P1;PMS_P2;Temp;Humidity;BMP_temperature;BMP_pressure;BME280_temperature;BME280_humidity;BME280_pressure;Samples;Min_cycle;Max_cycle;Signal;HPM_P1;HPM_P2
2021/06/16 00:02:15;;;;;;;4.35;3.05;;;;;;;27.03;45.60;99666.91;5073390;28;20106;-61
2021/06/16 00:04:41;;;;;;;9.18;3.55;;;;;;;27.12;45.77;99677.66;5076342;28;20040;-59
2021/06/16 00:07:06;;;;;;;9.75;3.00;;;;;;;27.02;46.02;99670.94;5065096;28;20031;-59
2021/06/16 00:09:32;;;;;;;6.30;2.90;;;;;;;27.06;46.17;99674.50;5077766;28;20074;-62
2021/06/16 00:11:57;;;;;;;5.90;2.83;;;;;;;27.04;46.17;99670.50;5076044;28;20021;-59
2021/06/16 00:14:23;;;;;;;4.70;3.05;;;;;;;26.98;45.80;99668.13;5075868;28;20021;-59
2021/06/16 00:16:49;;;;;;;5.38;3.10;;;;;;;26.93;45.84;99665.78;5068926;28;20074;-59
2021/06/16 00:19:15;;;;;;;6.80;3.00;;;;;;;26.90;46.37;99665.78;5078814;28;20024;-59
2021/06/16 00:21:41;;;;;;;5.38;2.97;;;;;;;26.83;46.42;99678.63;5076660;28;20372;-59
2021/06/16 00:24:07;;;;;;;3.50;3.10;;;;;;;26.79;46.42;99677.03;5075739;28;20119;-59
2021/06/16 00:26:33;;;;;;;7.97;3.15;;;;;;;26.75;46.39;99665.84;5073550;28;20033;-59
2021/06/16 00:28:58;;;;;;;6.88;3.03;;;;;;;26.71;46.64;99662.25;5075820;28;20021;-59
2021/06/16 00:31:24;;;;;;;6.55;2.90;;;;;;;26.65;46.54;99661.09;5075819;28;20024;-59
2021/06/16 00:33:49;;;;;;;9.73;3.03;;;;;;;26.63;46.45;99663.50;5075403;28;20036;-59
2021/06/16 00:36:15;;;;;;;6.45;3.30;;;;;;;26.59;46.85;99659.94;5069060;28;20052;-58
2021/06/16 00:38:40;;;;;;;6.10;3.35;;;;;;;26.57;46.54;99663.13;5074432;28;20465;-59
2021/06/16 00:41:06;;;;;;;5.78;3.10;;;;;;;26.46;46.77;99654.78;5064958;28;20040;-59
2021/06/16 00:43:32;;;;;;;6.88;3.00;;;;;;;26.50;47.31;99668.75;5063256;28;20433;-59
2021/06/16 00:45:58;;;;;;;7.53;3.17;;;;;;;26.46;47.48;99670.78;5070575;28;20060;-59
2021/06/16 00:48:23;;;;;;;5.90;2.92;;;;;;;26.30;47.16;99646.88;5067612;28;20021;-59
2021/06/16 00:50:49;;;;;;;6.05;2.88;;;;;;;26.38;47.28;99661.59;5067069;28;20032;-59
2021/06/16 00:53:15;;;;;;;5.13;3.00;;;;;;;26.35;47.26;99666.00;5061800;28;20028;-59
2021/06/16 00:55:42;;;;;;;3.97;2.92;;;;;;;26.32;47.93;99666.03;5074462;28;20064;-60
2021/06/16 00:58:11;;;;;;;12.25;3.55;;;;;;;26.29;47.62;99659.25;5066868;28;20051;-59
2021/06/16 01:00:54;;;;;;;5.65;3.20;;;;;;;26.27;47.70;99664.44;5072865;28;20035;-59
2021/06/16 01:03:22;;;;;;;5.55;3.40;;;;;;;26.20;47.98;99659.66;5074615;28;20058;-59
2021/06/16 01:05:52;;;;;;;9.75;3.20;;;;;;;26.15;47.95;99653.72;5069709;28;20029;-59
2021/06/16 01:08:25;;;;;;;7.85;3.55;;;;;;;26.06;48.19;99660.50;5073452;28;20032;-60
2021/06/16 01:10:53;;;;;;;4.65;3.38;;;;;;;26.08;48.36;99663.69;5071913;28;20054;-59
2021/06/16 01:13:46;;;;;;;4.07;3.00;;;;;;;26.06;48.60;99659.69;5073225;28;20020;-59
2021/06/16 01:16:39;;;;;;;5.07;3.70;;;;;;;26.00;48.45;99659.28;5072328;28;20028;-59
2021/06/16 01:19:42;;;;;;;6.47;3.13;;;;;;;25.93;48.92;99657.31;5072138;28;20118;-59
2021/06/16 01:22:16;;;;;;;6.45;3.30;;;;;;;25.88;48.99;99665.31;5066405;28;20028;-59
2021/06/16 01:24:44;;;;;;;5.03;3.13;;;;;;;25.86;49.00;99653.72;5069626;28;20031;-59
2021/06/16 01:27:10;;;;;;;5.18;3.20;;;;;;;25.82;49.38;99650.94;5073287;28;20086;-59
2021/06/16 01:29:38;;;;;;;3.75;3.10;;;;;;;25.82;49.45;99655.75;5066599;28;20028;-59
2021/06/16 01:32:05;;;;;;;5.95;3.45;;;;;;;25.78;49.48;99655.75;5074594;28;20476;-59
2021/06/16 01:34:31;;;;;;;6.20;3.38;;;;;;;25.76;49.68;99647.75;5074199;28;20016;-61
2021/06/16 01:36:59;;;;;;;6.28;3.50;;;;;;;25.76;49.80;99652.56;5075573;28;20053;-59
2021/06/16 01:39:29;;;;;;;5.88;3.78;;;;;;;25.73;50.41;99643.00;5070388;28;20021;-59
2021/06/16 01:42:00;;;;;;;5.00;3.55;;;;;;;25.71;50.47;99639.81;5074243;28;20025;-58
2021/06/16 01:44:25;;;;;;;5.22;3.72;;;;;;;25.60;50.37;99625.03;5063521;28;20020;-58
2021/06/16 01:46:53;;;;;;;8.25;3.67;;;;;;;25.65;50.38;99635.00;5075836;28;20024;-60
2021/06/16 01:49:23;;;;;;;5.53;3.20;;;;;;;25.59;50.56;99624.25;5065466;28;20020;-59
2021/06/16 01:51:49;;;;;;;5.07;3.60;;;;;;;25.57;50.67;99625.88;5069040;28;20021;-59
2021/06/16 01:54:17;;;;;;;5.20;3.40;;;;;;;25.55;50.87;99611.50;5077893;28;20027;-59
2021/06/16 01:56:45;;;;;;;4.90;3.20;;;;;;;25.53;50.82;99611.91;5071026;28;20033;-59
2021/06/16 01:59:12;;;;;;;8.27;3.83;;;;;;;25.54;50.98;99607.91;5076342;28;20021;-59
2021/06/16 02:01:38;;;;;;;5.43;3.50;;;;;;;25.48;51.07;99606.72;5068217;28;20082;-59
2021/06/16 02:04:04;;;;;;;6.75;3.58;;;;;;;25.51;50.87;99600.34;5077197;28;20054;-59
2021/06/16 02:06:40;;;;;;;5.72;3.70;;;;;;;25.51;51.61;99605.13;5078779;28;20017;-58
2021/06/16 02:09:08;;;;;;;7.97;3.60;;;;;;;25.46;51.44;99600.72;5077839;28;20477;-58
2021/06/16 02:11:41;;;;;;;5.85;3.45;;;;;;;25.46;51.53;99592.38;5076407;28;20078;-59
2021/06/16 02:14:09;;;;;;;4.47;3.72;;;;;;;25.44;51.56;99597.56;5078347;28;20069;-59
2021/06/16 02:16:50;;;;;;;4.50;3.50;;;;;;;25.41;51.66;99593.56;5067120;28;20062;-59
2021/06/16 02:19:26;;;;;;;7.43;3.38;;;;;;;25.38;51.82;99596.31;5077455;28;20078;-60
2021/06/16 02:21:56;;;;;;;6.78;3.55;;;;;;;25.35;51.56;99588.78;5077039;28;20032;-59
2021/06/16 02:24:22;;;;;;;8.68;3.90;;;;;;;25.30;51.57;99582.38;5077784;28;20484;-58
2021/06/16 02:26:48;;;;;;;6.07;3.85;;;;;;;25.26;51.87;99584.38;5078023;28;20150;-59
2021/06/16 02:29:14;;;;;;;5.70;4.00;;;;;;;25.24;51.76;99572.81;5065501;28;20099;-59
2021/06/16 02:31:41;;;;;;;5.53;4.15;;;;;;;25.17;51.87;99566.44;5074257;28;20377;-59
2021/06/16 02:34:07;;;;;;;12.15;4.00;;;;;;;25.19;51.90;99564.06;5074638;28;20505;-59
2021/06/16 02:36:39;;;;;;;5.13;3.90;;;;;;;25.17;52.20;99566.44;5077505;28;20433;-59
2021/06/16 02:39:10;;;;;;;5.95;3.55;;;;;;;25.14;51.93;99573.63;5076902;28;20016;-59
2021/06/16 02:41:36;;;;;;;7.18;3.80;;;;;;;25.10;52.02;99567.25;5077968;28;20024;-59
2021/06/16 02:44:04;;;;;;;5.90;3.80;;;;;;;25.11;51.90;99580.78;5068810;28;20021;-60
2021/06/16 02:46:33;;;;;;;4.68;3.55;;;;;;;25.08;51.90;99581.56;5078522;28;20024;-58
2021/06/16 02:48:59;;;;;;;6.35;3.90;;;;;;;25.03;52.74;99579.19;5077546;28;20023;-59
2021/06/16 02:51:25;;;;;;;5.00;3.70;;;;;;;25.01;52.87;99580.78;5077378;28;20085;-59
2021/06/16 02:53:52;;;;;;;9.35;3.92;;;;;;;24.76;52.56;99542.53;5077377;28;20450;-60
2021/06/16 02:56:21;;;;;;;4.18;3.70;;;;;;;24.96;52.40;99579.97;5073720;28;20036;-59
2021/06/16 02:58:49;;;;;;;7.30;4.03;;;;;;;24.93;52.61;99582.75;5066816;28;20062;-60
2021/06/16 03:01:19;;;;;;;7.28;3.78;;;;;;;24.91;52.44;99588.75;5071843;28;20024;-59
2021/06/16 03:03:48;;;;;;;4.45;3.97;;;;;;;24.89;52.18;99579.97;5070711;28;20021;-59
2021/06/16 03:06:16;;;;;;;7.82;4.18;;;;;;;24.85;52.55;99579.19;5071364;28;20028;-59
2021/06/16 03:08:44;;;;;;;4.07;3.60;;;;;;;24.82;52.64;99578.00;5077774;28;20024;-59
2021/06/16 03:11:12;;;;;;;7.82;4.15;;;;;;;24.80;52.63;99576.78;5078039;28;20038;-59
2021/06/16 03:13:38;;;;;;;5.95;4.00;;;;;;;24.77;52.26;99572.00;5076825;28;20025;-59
2021/06/16 03:16:04;;;;;;;7.57;4.05;;;;;;;24.76;52.46;99575.97;5076424;28;20027;-59
2021/06/16 03:18:30;;;;;;;6.57;3.80;;;;;;;24.74;52.75;99576.38;5070913;28;20511;-59
2021/06/16 03:20:57;;;;;;;6.68;4.18;;;;;;;24.71;53.10;99568.81;5084060;28;20020;-60
2021/06/16 03:23:24;;;;;;;5.60;3.85;;;;;;;24.51;52.89;99546.03;5066074;28;20027;-59
2021/06/16 03:25:51;;;;;;;8.73;4.18;;;;;;;24.63;52.93;99559.59;5077304;28;20365;-59
2021/06/16 03:28:18;;;;;;;6.30;4.40;;;;;;;24.61;53.00;99575.94;5075711;28;20032;-59
2021/06/16 03:30:44;;;;;;;7.78;4.10;;;;;;;24.58;52.70;99570.34;5076580;28;20028;-58
2021/06/16 03:33:11;;;;;;;6.88;3.80;;;;;;;24.51;52.87;99576.69;5070234;28;20099;-58
2021/06/16 03:35:37;;;;;;;5.90;4.05;;;;;;;24.52;53.29;99581.09;5073271;28;20052;-59
2021/06/16 03:38:03;;;;;;;7.15;4.30;;;;;;;24.49;53.43;99573.50;5073151;28;20031;-58
2021/06/16 03:40:29;;;;;;;9.48;4.07;;;;;;;24.41;53.17;99575.47;5073321;28;20032;-58
2021/06/16 03:43:00;;;;;;;7.07;4.07;;;;;;;24.42;53.63;99573.47;5067904;28;20032;-59
2021/06/16 03:45:27;;;;;;;6.47;3.70;;;;;;;24.29;53.88;99557.13;5073800;28;20033;-59
2021/06/16 03:47:59;;;;;;;7.40;4.10;;;;;;;24.34;53.76;99573.47;5077310;28;20472;-59
2021/06/16 03:50:27;;;;;;;7.57;4.00;;;;;;;24.29;53.99;99567.47;5076874;28;20056;-59
2021/06/16 03:52:54;;;;;;;7.55;3.90;;;;;;;24.26;54.12;99568.25;5074058;28;20024;-59
2021/06/16 03:55:20;;;;;;;5.47;3.97;;;;;;;24.11;54.21;99557.06;5077000;28;20021;-58
2021/06/16 03:57:46;;;;;;;5.35;4.20;;;;;;;24.14;54.27;99558.25;5070763;28;20033;-60
2021/06/16 04:00:13;;;;;;;7.80;4.43;;;;;;;24.18;54.30;99559.84;5063113;28;20023;-58
2021/06/16 04:02:39;;;;;;;6.25;4.10;;;;;;;24.17;54.30;99568.63;5071521;28;20035;-58
2021/06/16 04:05:07;;;;;;;5.60;3.95;;;;;;;24.14;54.31;99558.25;5073562;28;20032;-58
2021/06/16 04:07:34;;;;;;;6.15;4.30;;;;;;;24.00;54.40;99536.75;5076210;28;20050;-59
2021/06/16 04:10:00;;;;;;;7.32;4.55;;;;;;;23.97;54.81;99535.50;5076635;28;20031;-59
2021/06/16 04:12:27;;;;;;;9.35;4.32;;;;;;;24.06;54.76;99549.09;5075402;28;20028;-59
2021/06/16 04:14:53;;;;;;;4.75;3.80;;;;;;;24.01;54.86;99553.03;5066456;28;21157;-59
2021/06/16 04:17:21;;;;;;;5.28;4.65;;;;;;;24.00;55.07;99556.22;5066974;28;20033;-58
2021/06/16 04:19:48;;;;;;;6.05;4.38;;;;;;;23.97;55.36;99555.00;5079336;28;20029;-61
2021/06/16 04:22:14;;;;;;;7.75;4.50;;;;;;;23.95;55.40;99560.19;5077605;28;20025;-59
2021/06/16 04:24:40;;;;;;;7.65;4.43;;;;;;;23.94;55.61;99555.78;5073792;28;20031;-58
2021/06/16 04:27:06;;;;;;;7.15;4.50;;;;;;;23.92;55.53;99555.34;5073137;28;20025;-59
2021/06/16 04:29:32;;;;;;;5.72;3.95;;;;;;;23.92;55.57;99557.34;5074033;28;20070;-59
2021/06/16 04:31:58;;;;;;;5.05;4.25;;;;;;;23.89;55.72;99554.16;5063755;28;20071;-60
2021/06/16 04:34:23;;;;;;;7.53;4.28;;;;;;;23.86;55.85;99559.69;5071932;28;20032;-58
2021/06/16 04:36:49;;;;;;;7.93;4.63;;;;;;;23.84;56.00;99553.72;5070735;28;20384;-58
2021/06/16 04:39:16;;;;;;;5.57;4.35;;;;;;;23.82;56.07;99558.88;5075073;28;20028;-59
2021/06/16 04:41:41;;;;;;;8.88;4.63;;;;;;;23.82;56.17;99559.69;5072384;28;20025;-59
2021/06/16 04:44:07;;;;;;;5.28;4.38;;;;;;;23.81;56.14;99555.31;5070642;28;20084;-59
2021/06/16 04:46:32;;;;;;;10.85;4.80;;;;;;;23.80;56.32;99542.56;5069923;28;20365;-60
2021/06/16 04:48:58;;;;;;;5.47;4.32;;;;;;;23.80;56.47;99555.69;5072133;28;20025;-59
2021/06/16 04:51:23;;;;;;;6.00;4.68;;;;;;;23.74;56.38;99550.47;5066046;28;20017;-59
2021/06/16 04:53:49;;;;;;;8.45;4.43;;;;;;;23.80;56.63;99564.03;5074371;28;20029;-59
2021/06/16 04:56:14;;;;;;;8.13;4.75;;;;;;;23.67;56.79;99544.88;5073137;28;20029;-58
2021/06/16 04:58:40;;;;;;;8.07;4.30;;;;;;;23.72;56.92;99550.06;5067691;28;20028;-59
2021/06/16 05:01:05;;;;;;;6.25;4.40;;;;;;;23.72;57.06;99550.06;5067784;28;20024;-59
2021/06/16 05:03:31;;;;;;;8.43;4.60;;;;;;;23.77;57.09;99551.69;5073719;28;20046;-61
2021/06/16 05:05:56;;;;;;;9.02;4.82;;;;;;;23.77;57.30;99560.03;5064545;28;20115;-59
2021/06/16 05:08:22;;;;;;;9.80;4.78;;;;;;;23.76;57.23;99557.66;5071787;28;20024;-59
2021/06/16 05:10:47;;;;;;;5.30;4.80;;;;;;;23.73;57.27;99562.00;5076096;28;20016;-59
2021/06/16 05:13:13;;;;;;;6.95;4.57;;;;;;;23.77;57.49;99568.38;5068633;28;20039;-59
2021/06/16 05:15:39;;;;;;;5.65;4.40;;;;;;;23.79;57.74;99559.66;5064698;28;20047;-59
2021/06/16 05:18:07;;;;;;;5.93;4.70;;;;;;;23.71;57.65;99565.19;5072339;28;20423;-59
2021/06/16 05:20:32;;;;;;;8.07;4.75;;;;;;;23.81;57.94;99576.75;5078775;28;20035;-60
2021/06/16 05:22:59;;;;;;;6.25;4.75;;;;;;;23.81;57.88;99571.19;5073635;28;20032;-58
2021/06/16 05:25:24;;;;;;;6.53;4.50;;;;;;;23.87;57.97;99567.66;5062853;28;20469;-59
2021/06/16 05:27:50;;;;;;;8.95;4.80;;;;;;;23.86;57.75;99559.69;5073037;28;20381;-59
2021/06/16 05:30:19;;;;;;;6.38;4.65;;;;;;;23.94;57.84;99572.50;5072089;28;20060;-60
2021/06/16 05:32:44;;;;;;;6.95;5.13;;;;;;;23.94;57.77;99566.94;5068073;28;20016;-59
2021/06/16 05:35:10;;;;;;;7.32;4.55;;;;;;;23.86;57.73;99541.00;5072371;28;20124;-58
2021/06/16 05:37:36;;;;;;;5.20;4.50;;;;;;;24.05;57.85;99566.97;5075766;28;20029;-57
2021/06/16 05:40:03;;;;;;;5.95;4.80;;;;;;;24.11;57.93;99561.84;5078649;28;20021;-58
2021/06/16 05:42:28;;;;;;;7.15;4.78;;;;;;;24.15;57.72;99562.63;5068606;28;20070;-57
2021/06/16 05:44:54;;;;;;;6.53;4.82;;;;;;;24.17;57.63;99563.03;5072340;28;20033;-57
2021/06/16 05:47:19;;;;;;;6.10;4.50;;;;;;;24.20;57.88;99567.84;5072960;28;20040;-56
2021/06/16 05:49:45;;;;;;;6.93;4.80;;;;;;;24.22;57.59;99562.66;5075393;28;20032;-58
2021/06/16 05:52:10;;;;;;;18.40;13.80;;;;;;;24.25;57.84;99556.31;5068930;28;21123;-56
2021/06/16 05:54:38;;;;;;;24.08;19.52;;;;;;;24.18;57.74;99548.72;5077338;28;20027;-57
2021/06/16 05:57:04;;;;;;;10.18;7.97;;;;;;;24.31;57.68;99562.31;5078669;28;20020;-56
2021/06/16 05:59:30;;;;;;;9.07;5.18;;;;;;;24.30;57.56;99558.69;5074383;28;20031;-56
2021/06/16 06:01:55;;;;;;;10.77;4.50;;;;;;;24.34;57.18;99562.31;5079311;28;20020;-57
2021/06/16 06:04:21;;;;;;;6.90;4.68;;;;;;;24.41;57.29;99555.16;5079121;28;20024;-58
2021/06/16 06:06:46;;;;;;;4.90;4.03;;;;;;;24.43;57.34;99556.34;5078991;28;20451;-59
2021/06/16 06:09:11;;;;;;;7.40;4.13;;;;;;;24.47;56.96;99550.78;5086609;28;20020;-56
2021/06/16 06:11:37;;;;;;;6.22;4.10;;;;;;;24.51;57.00;99546.03;5078224;28;20032;-56
2021/06/16 06:14:04;;;;;;;6.80;4.10;;;;;;;24.43;56.42;99519.34;5069679;28;20430;-58
2021/06/16 06:16:30;;;;;;;8.52;4.43;;;;;;;24.58;56.23;99545.28;5067456;28;20024;-56
2021/06/16 06:18:55;;;;;;;7.22;3.78;;;;;;;24.56;55.85;99533.72;5080144;28;20480;-56
2021/06/16 06:21:21;;;;;;;8.00;4.18;;;;;;;24.65;55.58;99551.63;5078598;28;20055;-56
2021/06/16 06:23:47;;;;;;;6.13;3.90;;;;;;;24.72;55.68;99553.69;5078047;28;20099;-57
2021/06/16 06:26:12;;;;;;;4.60;3.47;;;;;;;24.76;55.26;99554.47;5078078;28;20030;-56
2021/06/16 06:28:40;;;;;;;9.18;6.05;;;;;;;24.82;54.89;99557.66;5066490;28;20032;-57
2021/06/16 06:31:05;;;;;;;12.52;9.25;;;;;;;24.75;54.79;99541.72;5073379;28;20138;-57
2021/06/16 06:33:31;;;;;;;11.27;5.05;;;;;;;24.88;54.50;99547.72;5078863;28;20095;-60
2021/06/16 06:35:56;;;;;;;11.93;4.82;;;;;;;24.91;54.18;99551.72;5077073;28;20052;-57
2021/06/16 06:38:22;;;;;;;8.60;3.97;;;;;;;24.91;54.17;99549.72;5077050;28;20012;-58
2021/06/16 06:40:47;;;;;;;8.77;3.78;;;;;;;24.92;53.84;99551.31;5082000;28;20379;-57
2021/06/16 06:43:13;;;;;;;9.02;3.60;;;;;;;24.92;53.61;99550.50;5090760;28;20043;-58
2021/06/16 06:45:38;;;;;;;9.27;3.63;;;;;;;24.92;53.90;99544.91;5068895;28;20480;-57
2021/06/16 06:48:04;;;;;;;7.97;3.72;;;;;;;24.94;53.66;99548.94;5078526;28;20024;-57
2021/06/16 06:50:30;;;;;;;4.15;3.50;;;;;;;24.96;53.49;99538.16;5071006;28;20022;-58
2021/06/16 06:52:55;;;;;;;7.85;3.60;;;;;;;25.00;53.12;99543.72;5072360;28;20008;-56
2021/06/16 06:55:21;;;;;;;9.82;6.60;;;;;;;25.05;53.07;99543.34;5073883;28;20028;-57
2021/06/16 06:57:46;;;;;;;8.57;5.78;;;;;;;25.07;52.96;99540.97;5065016;28;20017;-59
2021/06/16 07:00:14;;;;;;;7.15;6.07;;;;;;;25.16;53.20;99543.34;5064278;28;20017;-57
2021/06/16 07:02:42;;;;;;;7.47;3.47;;;;;;;25.21;52.38;99544.94;5071148;28;20024;-60
2021/06/16 07:05:08;;;;;;;7.80;3.13;;;;;;;25.26;52.20;99548.13;5075171;28;20084;-60
2021/06/16 07:07:34;;;;;;;4.25;3.40;;;;;;;25.27;52.17;99529.38;5072881;28;20023;-60
2021/06/16 07:09:59;;;;;;;6.50;3.10;;;;;;;25.40;51.91;99538.97;5077432;28;20024;-61
2021/06/16 07:12:25;;;;;;;7.60;3.22;;;;;;;25.48;51.90;99547.34;5078152;28;20039;-61
2021/06/16 07:14:52;;;;;;;5.97;3.05;;;;;;;25.52;51.53;99537.75;5075965;28;20052;-62
2021/06/16 07:17:18;;;;;;;5.90;3.10;;;;;;;25.56;51.21;99532.16;5069665;28;20028;-61
2021/06/16 07:19:43;;;;;;;3.50;3.20;;;;;;;25.67;51.34;99543.31;5079611;28;20460;-61
2021/06/16 07:22:09;;;;;;;4.30;3.20;;;;;;;25.72;50.65;99545.66;5086745;28;20028;-61
2021/06/16 07:24:34;;;;;;;6.47;3.88;;;;;;;25.73;50.41;99552.84;5076381;28;20476;-61
2021/06/16 07:27:00;;;;;;;6.13;3.13;;;;;;;25.76;50.34;99552.06;5077220;28;20016;-61
2021/06/16 07:29:25;;;;;;;14.43;3.78;;;;;;;25.84;50.66;99547.22;5072901;28;20016;-61
2021/06/16 07:31:51;;;;;;;8.10;3.28;;;;;;;25.91;50.89;99539.63;5077271;28;20023;-61
2021/06/16 07:34:17;;;;;;;7.47;3.30;;;;;;;26.01;50.63;99535.19;5067027;28;20028;-61
2021/06/16 07:36:42;;;;;;;11.80;3.42;;;;;;;26.11;50.35;99549.56;5075060;28;20540;-61
2021/06/16 07:39:08;;;;;;;6.75;3.30;;;;;;;26.18;50.08;99536.38;5068737;28;20694;-61
2021/06/16 07:41:35;;;;;;;5.63;2.97;;;;;;;26.16;49.83;99533.19;5068369;28;20020;-61
2021/06/16 07:44:00;;;;;;;11.18;4.05;;;;;;;26.23;49.93;99541.53;5074134;28;20024;-61
2021/06/16 07:46:26;;;;;;;8.07;3.33;;;;;;;26.31;50.09;99547.88;5073100;28;20020;-60
2021/06/16 07:48:51;;;;;;;6.38;3.65;;;;;;;26.36;50.20;99552.25;5077099;28;20477;-60
2021/06/16 07:51:18;;;;;;;8.48;3.88;;;;;;;26.34;50.62;99547.06;5076805;28;20020;-62
2021/06/16 07:53:43;;;;;;;10.02;3.55;;;;;;;26.35;50.13;99550.66;5077150;28;20485;-60
2021/06/16 07:56:09;;;;;;;9.98;3.78;;;;;;;26.37;50.53;99548.22;5069431;28;20554;-60
2021/06/16 07:58:35;;;;;;;15.02;3.95;;;;;;;26.26;50.48;99533.53;5072801;28;20043;-60
2021/06/16 08:01:01;;;;;;;5.72;3.90;;;;;;;26.36;50.81;99543.88;5068112;28;20022;-62
2021/06/16 08:03:27;;;;;;;5.45;3.70;;;;;;;26.41;50.51;99549.00;5068333;28;20073;-60
2021/06/16 08:05:54;;;;;;;8.73;3.75;;;;;;;26.43;50.80;99563.38;5076338;28;20027;-61
2021/06/16 08:08:20;;;;;;;10.98;4.10;;;;;;;26.44;50.85;99576.16;5081782;28;20034;-61
2021/06/16 08:10:46;;;;;;;7.50;3.88;;;;;;;26.37;51.10;99570.59;5081926;28;20016;-62
2021/06/16 08:13:11;;;;;;;12.18;4.18;;;;;;;26.37;50.67;99571.41;5076830;28;20024;-60
2021/06/16 08:15:37;;;;;;;13.80;4.07;;;;;;;26.42;50.57;99572.16;5076826;28;20376;-61
2021/06/16 08:18:03;;;;;;;8.30;4.13;;;;;;;26.37;50.61;99556.59;5076507;28;20105;-61
2021/06/16 08:20:29;;;;;;;11.43;4.18;;;;;;;26.44;50.46;99564.97;5074979;28;20025;-60
2021/06/16 08:22:54;;;;;;;9.60;3.90;;;;;;;26.47;50.73;99566.94;5075512;28;20017;-61
2021/06/16 08:25:20;;;;;;;6.50;3.58;;;;;;;26.53;50.48;99565.31;5071565;28;20070;-61
2021/06/16 08:27:46;;;;;;;8.73;3.25;;;;;;;26.59;50.38;99567.69;5065611;28;20032;-62
2021/06/16 08:30:13;;;;;;;10.30;3.80;;;;;;;26.63;50.06;99569.25;5062731;28;20021;-63
2021/06/16 08:32:40;;;;;;;10.52;3.85;;;;;;;26.53;49.98;99537.34;5076659;28;20035;-62
2021/06/16 08:35:07;;;;;;;5.57;3.25;;;;;;;26.59;50.27;99550.91;5069871;28;20049;-62
2021/06/16 08:37:33;;;;;;;5.93;4.30;;;;;;;26.75;49.83;99556.00;5075364;28;20020;-63
2021/06/16 08:39:58;;;;;;;11.00;4.00;;;;;;;26.68;49.26;99521.28;5073311;28;20130;-62
2021/06/16 08:42:26;;;;;;;12.55;4.28;;;;;;;26.85;49.80;99536.38;5075718;28;20021;-63
2021/06/16 08:44:53;;;;;;;7.53;3.80;;;;;;;26.91;49.36;99533.91;5066869;28;20013;-62
2021/06/16 08:47:21;;;;;;;11.88;3.85;;;;;;;26.95;49.21;99526.31;5070811;28;20027;-62
2021/06/16 08:49:47;;;;;;;5.65;3.60;;;;;;;26.88;49.14;99506.78;5074318;28;20386;-61
2021/06/16 08:52:12;;;;;;;10.00;3.65;;;;;;;27.04;49.52;99525.81;5070589;28;20034;-62
2021/06/16 08:54:38;;;;;;;7.10;3.80;;;;;;;27.08;49.27;99532.19;5072101;28;20050;-62
2021/06/16 08:57:04;;;;;;;7.93;3.80;;;;;;;27.13;49.45;99531.75;5069498;28;20016;-62
2021/06/16 08:59:30;;;;;;;7.55;3.65;;;;;;;27.17;48.83;99535.31;5074844;28;20028;-62
2021/06/16 09:01:56;;;;;;;7.47;3.80;;;;;;;27.22;48.99;99522.88;5082060;28;20016;-62
2021/06/16 09:04:51;;;;;;;12.10;3.85;;;;;;;27.29;48.95;99519.22;5082694;28;20031;-62
2021/06/16 09:07:19;;;;;;;7.13;4.83;;;;;;;27.31;48.68;99520.38;5075578;28;20024;-65
2021/06/16 09:09:45;;;;;;;7.82;3.75;;;;;;;27.35;48.66;99517.56;5077913;28;20031;-63
2021/06/16 09:12:15;;;;;;;8.63;3.55;;;;;;;27.39;48.85;99514.75;5081873;28;20055;-63
2021/06/16 09:14:53;;;;;;;5.75;3.80;;;;;;;27.53;48.51;99513.78;5082048;28;20020;-62
2021/06/16 09:17:22;;;;;;;7.90;3.55;;;;;;;27.60;49.00;99519.34;5075831;28;20541;-62
2021/06/16 09:19:58;;;;;;;9.07;3.70;;;;;;;27.71;48.78;99510.81;5082366;28;20021;-62
2021/06/16 09:22:38;;;;;;;9.82;4.20;;;;;;;27.80;48.04;99514.69;5091562;28;20020;-62
2021/06/16 09:25:08;;;;;;;13.73;3.97;;;;;;;27.82;48.32;99517.06;5082440;28;20032;-62
2021/06/16 09:27:41;;;;;;;14.55;3.83;;;;;;;27.88;48.11;99529.41;5077258;28;20025;-62
2021/06/16 09:30:28;;;;;;;6.10;3.60;;;;;;;27.93;47.59;99522.56;5071836;28;20089;-61
2021/06/16 09:32:58;;;;;;;7.82;4.28;;;;;;;27.92;47.96;99532.97;5082407;28;20016;-62
2021/06/16 09:35:27;;;;;;;6.10;3.80;;;;;;;27.92;47.97;99527.34;5080837;28;20036;-62
2021/06/16 09:37:54;;;;;;;12.50;4.00;;;;;;;27.91;47.65;99536.97;5080449;28;20035;-62
2021/06/16 09:40:29;;;;;;;7.25;4.10;;;;;;;27.91;48.04;99536.97;5081477;28;20404;-63
2021/06/16 09:43:00;;;;;;;8.85;4.10;;;;;;;27.90;48.27;99523.38;5085232;28;20092;-63
2021/06/16 09:45:26;;;;;;;9.00;3.92;;;;;;;27.93;48.29;99520.53;5079338;28;20028;-62
2021/06/16 09:47:52;;;;;;;8.43;3.90;;;;;;;27.94;48.31;99522.13;5081660;28;20127;-63
2021/06/16 09:50:27;;;;;;;9.07;4.30;;;;;;;28.02;48.37;99522.03;5074084;28;20048;-63
2021/06/16 09:52:53;;;;;;;8.63;4.30;;;;;;;28.05;48.32;99519.19;5080629;28;20001;-62
2021/06/16 09:55:21;;;;;;;8.85;4.95;;;;;;;28.10;48.29;99515.94;5081736;28;20028;-62
2021/06/16 09:57:59;;;;;;;7.15;4.07;;;;;;;28.15;48.26;99508.28;5068619;28;20074;-63
2021/06/16 10:00:38;;;;;;;5.97;4.10;;;;;;;28.17;48.10;99509.47;5077443;28;20389;-63
2021/06/16 10:03:11;;;;;;;10.73;4.90;;;;;;;28.22;47.78;99497.00;5071472;28;20491;-61
2021/06/16 10:19:38;;;;;;;10.02;4.25;;;;;;;28.97;46.67;99491.44;5091656;27;20351;-58
2021/06/16 10:22:03;;;;;;;9.10;4.57;;;;;;;28.87;46.87;99488.41;5091036;28;20047;-59
2021/06/16 10:24:29;;;;;;;8.23;4.70;;;;;;;28.81;47.25;99492.13;5082347;28;20024;-57
2021/06/16 10:26:58;;;;;;;10.38;4.70;;;;;;;28.84;47.28;99489.25;5091783;28;20085;-59
2021/06/16 10:29:28;;;;;;;8.38;4.50;;;;;;;28.88;47.25;99486.41;5090744;28;20028;-58
2021/06/16 10:32:01;;;;;;;9.93;4.30;;;;;;;28.88;47.31;99484.38;5091532;28;20028;-58
2021/06/16 10:34:52;;;;;;;5.13;4.63;;;;;;;28.94;46.78;99487.50;5091693;28;20604;-58
2021/06/16 10:37:31;;;;;;;6.18;4.35;;;;;;;28.97;47.00;99485.84;5091318;28;20024;-58
2021/06/16 10:40:19;;;;;;;7.10;4.38;;;;;;;29.03;46.85;99490.53;5089234;28;20040;-58
2021/06/16 10:43:03;;;;;;;8.10;4.43;;;;;;;29.07;47.11;99484.09;5091814;28;20031;-58
2021/06/16 10:45:34;;;;;;;12.10;4.30;;;;;;;29.11;46.35;99473.56;5091490;28;20551;-59
2021/06/16 10:48:10;;;;;;;13.73;4.70;;;;;;;29.16;46.46;99475.91;5091012;28;20058;-59
2021/06/16 10:50:47;;;;;;;8.27;4.15;;;;;;;29.21;46.46;99466.97;5090783;28;20130;-58
2021/06/16 10:53:17;;;;;;;8.38;4.05;;;;;;;29.24;46.61;99466.13;5085863;28;20084;-59
2021/06/16 10:55:55;;;;;;;10.50;4.60;;;;;;;29.29;46.49;99476.84;5091656;28;20020;-58
2021/06/16 10:58:21;;;;;;;10.98;4.38;;;;;;;29.35;46.15;99472.34;5091420;28;20032;-59
2021/06/16 11:01:15;;;;;;;10.63;4.90;;;;;;;29.44;45.62;99466.19;5090749;28;20107;-56
2021/06/16 11:03:47;;;;;;;11.50;4.45;;;;;;;29.46;45.50;99458.09;5088039;28;20044;-54
2021/06/16 11:06:37;;;;;;;9.32;4.50;;;;;;;29.54;45.44;99455.16;5091201;28;20063;-50
2021/06/16 11:09:10;;;;;;;8.40;4.40;;;;;;;29.58;45.11;99450.25;5089844;28;20047;-58
2021/06/16 11:11:51;;;;;;;15.75;4.32;;;;;;;29.65;44.87;99450.91;5092090;28;20039;-53
2021/06/16 11:14:32;;;;;;;5.05;3.85;;;;;;;29.73;44.56;99431.88;5088812;28;20027;-58
2021/06/16 11:17:05;;;;;;;9.43;4.20;;;;;;;29.76;44.33;99438.63;5088380;28;20016;-56
2021/06/16 11:19:36;;;;;;;7.43;4.45;;;;;;;29.82;44.33;99434.13;5077648;28;20075;-56
2021/06/16 11:22:25;;;;;;;8.85;4.20;;;;;;;29.89;44.30;99438.75;5077806;28;20039;-58
2021/06/16 11:25:18;;;;;;;7.15;4.40;;;;;;;29.94;44.72;99432.69;5068308;28;20128;-55
2021/06/16 11:27:50;;;;;;;7.75;3.90;;;;;;;29.97;44.41;99426.97;5078097;28;20103;-54
2021/06/16 11:30:34;;;;;;;10.85;4.50;;;;;;;29.89;44.20;99403.06;5074533;28;20433;-58
2021/06/16 11:33:11;;;;;;;4.65;4.25;;;;;;;30.08;43.67;99428.75;5076744;28;20125;-53
2021/06/16 11:35:45;;;;;;;5.78;4.20;;;;;;;30.06;43.80;99423.56;5077490;28;20480;-54
2021/06/16 11:38:23;;;;;;;7.97;4.10;;;;;;;30.05;43.75;99424.00;5076886;28;20021;-55
2021/06/16 11:41:17;;;;;;;7.65;4.13;;;;;;;30.08;43.60;99423.91;5076027;28;20108;-52
2021/06/16 11:43:47;;;;;;;8.35;3.83;;;;;;;30.13;43.69;99422.59;5075668;28;20524;-54
2021/06/16 11:46:28;;;;;;;8.68;3.72;;;;;;;30.20;43.04;99419.63;5077136;28;20388;-52
2021/06/16 11:49:24;;;;;;;8.23;4.13;;;;;;;30.27;43.34;99411.03;5077113;28;20090;-55
2021/06/16 11:51:54;;;;;;;5.78;3.92;;;;;;;30.32;43.03;99412.53;5076592;28;20027;-53
2021/06/16 11:54:33;;;;;;;8.75;4.00;;;;;;;30.39;42.57;99411.56;5077567;28;20512;-54